Time;durP1;ratioP1;P1;durP2;ratioP2;P2;SDS_P1;SDS_P2;PMS_P1;PMS_P2;Temp;Humidity;BMP_temperature;BMP_pressure;BME280_temperature;BME280_humidity;BME280_pressure;Samples;Min_cycle;Max_cycle;Signal;HPM_P1;HPM_P2
2023/04/08 00:00:34;;;;;;;4.82;4.10;;;9.40;79.90;;;;;;4957849;28;20074;-64
2023/04/08 00:03:00;;;;;;;5.10;4.00;;;9.40;79.80;;;;;;4955985;28;20046;-63
2023/04/08 00:05:26;;;;;;;4.25;3.80;;;9.30;79.90;;;;;;4956438;28;20031;-64
2023/04/08 00:07:52;;;;;;;4.00;3.60;;;9.20;79.80;;;;;;4956156;28;20066;-64
2023/04/08 00:10:18;;;;;;;4.40;3.95;;;9.30;79.90;;;;;;4958009;28;20035;-64
2023/04/08 00:12:44;;;;;;;4.20;3.83;;;9.30;80.10;;;;;;4955256;28;20584;-64
2023/04/08 00:15:10;;;;;;;4.07;3.75;;;9.30;80.20;;;;;;4955874;28;20047;-64
2023/04/08 00:17:35;;;;;;;4.28;3.42;;;9.30;80.10;;;;;;4956140;28;20512;-64
2023/04/08 00:20:01;;;;;;;4.43;3.60;;;9.30;80.20;;;;;;4957427;28;20046;-64
2023/04/08 00:22:27;;;;;;;4.30;3.90;;;9.30;80.50;;;;;;4952671;28;20046;-64
2023/04/08 00:24:52;;;;;;;4.40;3.55;;;9.30;80.50;;;;;;4956148;28;20046;-63
2023/04/08 00:27:18;;;;;;;4.25;3.75;;;9.20;80.40;;;;;;4957884;28;20031;-63
2023/04/08 00:29:44;;;;;;;4.20;3.80;;;9.20;80.50;;;;;;4957229;28;20542;-64
2023/04/08 00:32:09;;;;;;;4.20;3.80;;;9.20;80.60;;;;;;4958035;28;20474;-64
2023/04/08 00:34:36;;;;;;;4.63;4.15;;;9.20;80.60;;;;;;4954970;28;20062;-63
2023/04/08 00:37:02;;;;;;;4.07;3.67;;;9.20;80.70;;;;;;4954751;28;20031;-63
2023/04/08 00:39:27;;;;;;;4.55;4.15;;;9.20;80.80;;;;;;4954986;28;20414;-64
2023/04/08 00:41:53;;;;;;;4.63;3.70;;;9.20;80.80;;;;;;4958044;28;20740;-64
2023/04/08 00:44:19;;;;;;;8.23;4.28;;;9.20;80.90;;;;;;4955931;28;20047;-64
2023/04/08 00:46:45;;;;;;;4.57;3.97;;;9.20;81.00;;;;;;4952344;28;20049;-63
2023/04/08 00:49:11;;;;;;;4.13;3.53;;;9.20;81.00;;;;;;4958845;28;20447;-63
2023/04/08 00:51:36;;;;;;;4.20;3.80;;;9.10;81.10;;;;;;4958963;28;20031;-63
2023/04/08 00:54:06;;;;;;;4.97;3.90;;;9.10;81.20;;;;;;4959462;28;20118;-62
2023/04/08 00:56:33;;;;;;;4.25;3.90;;;9.10;81.20;;;;;;4958745;28;20051;-63
2023/04/08 00:59:00;;;;;;;4.07;3.75;;;9.10;81.30;;;;;;4954924;28;20046;-63
2023/04/08 01:02:06;;;;;;;5.05;3.92;;;9.20;81.30;;;;;;4959856;28;20071;-63
2023/04/08 01:05:07;;;;;;;5.00;3.75;;;9.20;82.60;;;;;;4902239;29;20063;-63
2023/04/08 01:07:35;;;;;;;4.45;3.85;;;9.20;81.30;;;;;;4890211;29;20397;-63
2023/04/08 01:10:25;;;;;;;5.50;4.15;;;9.20;80.80;;;;;;4941289;28;20638;-63
2023/04/08 01:12:56;;;;;;;4.20;3.80;;;9.30;81.50;;;;;;4954024;28;20042;-63
2023/04/08 01:15:24;;;;;;;4.13;3.72;;;9.30;81.20;;;;;;4955123;28;20122;-63
2023/04/08 01:17:53;;;;;;;4.40;4.00;;;9.30;80.90;;;;;;4954534;28;20053;-63
2023/04/08 01:20:21;;;;;;;4.45;3.75;;;9.30;80.80;;;;;;4953880;28;20040;-63
2023/04/08 01:23:02;;;;;;;3.95;3.53;;;9.30;80.80;;;;;;4955608;28;20283;-63
2023/04/08 01:25:31;;;;;;;3.72;3.42;;;9.30;82.20;;;;;;4955890;28;20569;-64
2023/04/08 01:27:58;;;;;;;4.18;3.70;;;9.30;80.80;;;;;;4954753;28;20388;-64
2023/04/08 01:30:27;;;;;;;5.13;4.00;;;9.30;80.70;;;;;;4954886;28;20050;-63
2023/04/08 01:32:54;;;;;;;4.20;3.83;;;9.40;80.80;;;;;;4954336;28;20038;-62
2023/04/08 01:35:20;;;;;;;3.58;3.28;;;9.40;80.60;;;;;;4958159;28;20062;-63
2023/04/08 01:37:49;;;;;;;3.92;3.60;;;9.40;80.60;;;;;;4957797;28;20070;-63
2023/04/08 01:40:17;;;;;;;7.18;3.80;;;9.40;80.60;;;;;;4956335;28;20035;-63
2023/04/08 01:42:45;;;;;;;3.97;3.67;;;9.40;80.50;;;;;;4956222;28;20077;-63
2023/04/08 01:45:11;;;;;;;4.15;3.65;;;9.40;80.40;;;;;;4957319;28;20054;-63
2023/04/08 01:47:38;;;;;;;4.30;3.90;;;9.40;80.50;;;;;;4957342;28;20030;-63
2023/04/08 01:50:06;;;;;;;3.90;3.60;;;9.50;80.60;;;;;;4953168;28;20042;-63
2023/04/08 01:52:34;;;;;;;4.60;4.18;;;9.50;80.50;;;;;;4953206;28;20427;-64
2023/04/08 01:55:00;;;;;;;4.35;3.92;;;9.50;80.60;;;;;;4954471;28;20039;-64
2023/04/08 01:57:30;;;;;;;4.53;4.07;;;9.50;80.30;;;;;;4954366;28;20046;-63
2023/04/08 02:00:00;;;;;;;4.70;4.20;;;9.50;80.50;;;;;;4952866;28;20648;-63
2023/04/08 02:02:27;;;;;;;5.25;4.75;;;9.50;80.50;;;;;;4955359;28;20658;-63
2023/04/08 02:04:54;;;;;;;4.80;4.30;;;9.50;80.30;;;;;;4952827;28;20035;-63
2023/04/08 02:07:20;;;;;;;5.13;4.63;;;9.60;80.40;;;;;;4954029;28;20431;-63
2023/04/08 02:09:45;;;;;;;5.82;4.45;;;9.60;81.00;;;;;;4953916;28;20094;-63
2023/04/08 02:12:11;;;;;;;5.50;5.00;;;9.60;80.50;;;;;;4955845;28;20630;-63
2023/04/08 02:14:37;;;;;;;5.47;4.82;;;9.60;80.60;;;;;;4953270;28;20039;-63
2023/04/08 02:17:16;;;;;;;5.28;4.78;;;9.50;80.60;;;;;;4955481;28;20065;-62
2023/04/08 02:20:07;;;;;;;5.50;4.88;;;9.50;81.30;;;;;;4951989;28;20067;-62
2023/04/08 02:22:42;;;;;;;5.45;4.95;;;9.50;81.90;;;;;;4945705;28;20117;-63
2023/04/08 02:25:12;;;;;;;6.03;5.10;;;9.50;81.50;;;;;;4954892;28;20228;-63
2023/04/08 02:27:40;;;;;;;5.85;5.25;;;9.40;81.10;;;;;;4954279;28;20157;-62
2023/04/08 02:30:07;;;;;;;7.10;5.93;;;9.40;81.20;;;;;;4955443;28;20504;-63
2023/04/08 02:32:34;;;;;;;6.88;5.82;;;9.50;81.30;;;;;;4952919;28;20073;-63
2023/04/08 02:35:02;;;;;;;7.65;6.63;;;9.40;81.40;;;;;;4955923;28;20043;-63
2023/04/08 02:37:28;;;;;;;7.10;6.38;;;9.40;81.60;;;;;;4955237;28;20028;-62
2023/04/08 02:39:54;;;;;;;7.65;6.85;;;9.40;81.60;;;;;;4956908;28;20046;-62
2023/04/08 02:42:20;;;;;;;7.95;7.03;;;9.40;81.70;;;;;;4952139;28;20483;-62
2023/04/08 02:44:45;;;;;;;9.10;7.50;;;9.40;81.70;;;;;;4955918;28;20349;-63
2023/04/08 02:47:11;;;;;;;8.80;7.53;;;9.40;82.60;;;;;;4953200;28;20042;-64
2023/04/08 02:49:36;;;;;;;9.60;7.88;;;9.40;81.70;;;;;;4953312;28;20028;-64
2023/04/08 02:52:02;;;;;;;8.50;7.32;;;9.40;81.90;;;;;;4953654;28;20450;-63
2023/04/08 02:54:27;;;;;;;8.35;7.53;;;9.40;82.00;;;;;;4957610;28;20082;-63
2023/04/08 02:56:53;;;;;;;9.15;7.95;;;9.40;81.90;;;;;;4956760;28;20039;-63
2023/04/08 02:59:19;;;;;;;8.30;7.30;;;9.30;81.90;;;;;;4957355;28;20028;-62
2023/04/08 03:01:44;;;;;;;9.52;7.93;;;9.40;82.00;;;;;;4957195;28;20743;-63
2023/04/08 03:04:10;;;;;;;9.38;8.05;;;9.40;82.10;;;;;;4960268;28;20122;-63
2023/04/08 03:06:35;;;;;;;9.63;8.18;;;9.30;82.20;;;;;;4958916;28;20039;-64
2023/04/08 03:09:01;;;;;;;9.35;8.20;;;9.40;82.20;;;;;;4958227;28;20519;-63
2023/04/08 03:11:27;;;;;;;11.02;8.88;;;9.30;82.20;;;;;;4957454;28;20054;-63
2023/04/08 03:13:52;;;;;;;11.02;8.85;;;9.30;82.40;;;;;;4955698;28;20059;-63
2023/04/08 03:16:18;;;;;;;10.30;8.93;;;9.40;82.30;;;;;;4958599;28;20046;-63
2023/04/08 03:18:43;;;;;;;11.57;9.30;;;9.30;82.20;;;;;;4955214;28;20396;-63
2023/04/08 03:21:09;;;;;;;12.15;9.50;;;9.30;82.40;;;;;;4957949;28;20038;-63
2023/04/08 03:23:35;;;;;;;10.57;9.18;;;9.30;82.40;;;;;;4954709;28;20041;-63
2023/04/08 03:26:00;;;;;;;10.07;8.52;;;9.30;82.30;;;;;;4956199;28;20507;-63
2023/04/08 03:28:26;;;;;;;10.90;9.27;;;9.30;82.40;;;;;;4956673;28;20039;-63
2023/04/08 03:30:51;;;;;;;10.88;9.32;;;9.30;82.60;;;;;;4954882;28;20051;-63
2023/04/08 03:33:17;;;;;;;11.52;9.75;;;9.30;82.70;;;;;;4957865;28;20035;-62
2023/04/08 03:35:43;;;;;;;13.15;10.65;;;9.30;82.90;;;;;;4957276;28;20468;-63
2023/04/08 03:38:08;;;;;;;11.98;10.10;;;9.30;82.90;;;;;;4955742;28;20034;-63
2023/04/08 03:40:34;;;;;;;11.27;9.70;;;9.30;82.90;;;;;;4956763;28;20610;-63
2023/04/08 03:42:59;;;;;;;13.00;10.27;;;9.30;82.90;;;;;;4956557;28;20037;-63
2023/04/08 03:45:25;;;;;;;11.52;9.75;;;9.30;82.90;;;;;;4957288;28;20039;-63
2023/04/08 03:47:51;;;;;;;12.38;10.00;;;9.30;82.90;;;;;;4954994;28;20082;-63
2023/04/08 03:50:16;;;;;;;12.75;10.20;;;9.30;82.90;;;;;;4957651;28;20081;-63
2023/04/08 03:52:42;;;;;;;12.77;10.77;;;9.30;82.70;;;;;;4956288;28;20134;-63
2023/04/08 03:55:08;;;;;;;12.60;10.05;;;9.30;82.80;;;;;;4958724;28;20046;-63
2023/04/08 03:57:33;;;;;;;12.88;10.57;;;9.30;82.80;;;;;;4951208;28;20128;-63
2023/04/08 03:59:59;;;;;;;13.63;10.45;;;9.40;82.80;;;;;;4957266;28;20039;-63
2023/04/08 04:02:25;;;;;;;13.35;10.25;;;9.40;82.70;;;;;;4956651;28;20035;-61
2023/04/08 04:04:50;;;;;;;12.90;10.57;;;9.40;82.70;;;;;;4957746;28;20035;-63
2023/04/08 04:07:16;;;;;;;13.18;10.13;;;9.30;82.60;;;;;;4956481;28;20031;-63
2023/04/08 04:09:41;;;;;;;17.70;11.50;;;9.40;82.70;;;;;;4956960;28;20057;-63
2023/04/08 04:12:07;;;;;;;14.05;11.25;;;9.40;82.70;;;;;;4960414;28;20380;-63
2023/04/08 04:14:32;;;;;;;13.02;10.93;;;9.30;82.60;;;;;;4956281;28;20038;-63
2023/04/08 04:16:58;;;;;;;12.88;10.02;;;9.40;82.60;;;;;;4956712;28;20100;-63
2023/04/08 04:19:23;;;;;;;13.80;10.57;;;9.40;82.40;;;;;;4957513;28;20091;-63
2023/04/08 04:21:49;;;;;;;13.63;10.63;;;9.40;82.30;;;;;;4958264;28;20039;-63
2023/04/08 04:24:14;;;;;;;12.80;10.05;;;9.50;82.50;;;;;;4955710;28;20414;-63
2023/04/08 04:26:41;;;;;;;10.95;8.98;;;9.40;82.60;;;;;;4957833;28;20089;-62
2023/04/08 04:29:06;;;;;;;11.77;9.25;;;9.40;82.40;;;;;;4955274;28;20604;-63
2023/04/08 04:31:32;;;;;;;11.48;9.40;;;9.40;82.20;;;;;;4956640;28;20058;-63
2023/04/08 04:33:57;;;;;;;11.45;9.15;;;9.50;82.20;;;;;;4957065;28;20042;-63
2023/04/08 04:36:23;;;;;;;11.75;9.02;;;9.50;82.30;;;;;;4957413;28;20042;-63
2023/04/08 04:38:50;;;;;;;12.95;9.52;;;9.50;82.20;;;;;;4956680;28;20399;-63
2023/04/08 04:41:15;;;;;;;12.10;9.10;;;9.50;82.10;;;;;;4956342;28;20047;-63
2023/04/08 04:43:41;;;;;;;13.52;9.18;;;9.50;82.10;;;;;;4941130;28;20594;-63
2023/04/08 04:46:07;;;;;;;10.35;8.38;;;9.50;82.00;;;;;;4957056;28;20049;-63
2023/04/08 04:48:34;;;;;;;13.30;9.65;;;9.50;82.10;;;;;;4956701;28;20063;-63
2023/04/08 04:51:02;;;;;;;13.85;10.48;;;9.50;82.00;;;;;;4956396;28;20514;-63
2023/04/08 04:53:28;;;;;;;12.23;9.95;;;9.40;82.10;;;;;;4959041;28;20074;-63
2023/04/08 04:55:54;;;;;;;12.82;10.00;;;9.50;82.40;;;;;;4955719;28;20043;-63
2023/04/08 04:58:20;;;;;;;13.20;10.52;;;9.40;82.30;;;;;;4956369;28;20043;-63
2023/04/08 05:00:45;;;;;;;14.65;11.43;;;9.40;82.30;;;;;;4954027;28;20036;-63
2023/04/08 05:03:12;;;;;;;12.02;10.55;;;9.40;82.40;;;;;;4956556;28;20126;-63
2023/04/08 05:05:37;;;;;;;12.68;10.50;;;9.40;82.50;;;;;;4955552;28;20039;-63
2023/04/08 05:08:03;;;;;;;14.10;11.27;;;9.40;82.60;;;;;;4957991;28;20038;-62
2023/04/08 05:10:29;;;;;;;13.02;10.25;;;9.40;82.60;;;;;;4957774;28;20641;-64
2023/04/08 05:12:55;;;;;;;13.27;10.73;;;9.50;82.70;;;;;;4954001;28;20039;-64
2023/04/08 05:15:20;;;;;;;11.52;9.77;;;9.40;82.60;;;;;;4955616;28;20070;-63
2023/04/08 05:17:46;;;;;;;11.40;10.20;;;9.50;82.60;;;;;;4958821;28;20043;-63
2023/04/08 05:20:11;;;;;;;11.93;9.98;;;9.50;82.60;;;;;;4958872;28;20073;-63
2023/04/08 05:22:37;;;;;;;12.48;10.10;;;9.50;82.50;;;;;;4959327;28;20071;-63
2023/04/08 05:25:04;;;;;;;13.18;10.63;;;9.60;82.40;;;;;;4959579;28;20114;-63
2023/04/08 05:27:30;;;;;;;12.23;10.18;;;9.60;82.40;;;;;;4957961;28;20126;-63
2023/04/08 05:29:56;;;;;;;12.70;10.38;;;9.60;82.30;;;;;;4958828;28;20642;-63
2023/04/08 05:32:21;;;;;;;12.10;10.27;;;9.60;82.40;;;;;;4959634;28;20043;-61
2023/04/08 05:34:47;;;;;;;12.57;10.32;;;9.60;82.50;;;;;;4958049;28;20100;-63
2023/04/08 05:37:13;;;;;;;15.60;11.57;;;9.60;82.60;;;;;;4959442;28;20110;-63
2023/04/08 05:39:38;;;;;;;13.65;11.20;;;9.60;82.50;;;;;;4960479;28;20034;-63
2023/04/08 05:42:04;;;;;;;14.40;11.48;;;9.60;82.40;;;;;;4960569;28;20543;-63
2023/04/08 05:44:30;;;;;;;13.73;11.95;;;9.60;82.40;;;;;;4959449;28;20647;-63
2023/04/08 05:46:56;;;;;;;14.52;12.02;;;9.70;82.50;;;;;;4959573;28;20035;-63
2023/04/08 05:49:22;;;;;;;14.30;11.10;;;9.70;82.60;;;;;;4957507;28;20038;-63
2023/04/08 05:51:48;;;;;;;12.25;10.35;;;9.70;82.50;;;;;;4953853;28;20038;-63
2023/04/08 05:54:14;;;;;;;13.75;11.02;;;9.70;82.40;;;;;;4957015;28;20043;-63
2023/04/08 05:56:39;;;;;;;13.48;11.20;;;9.70;82.30;;;;;;4954884;28;20470;-63
2023/04/08 05:59:05;;;;;;;13.45;11.30;;;9.70;82.30;;;;;;4957164;28;20047;-63
2023/04/08 06:01:30;;;;;;;13.00;11.27;;;9.60;82.40;;;;;;4958785;28;20042;-63
2023/04/08 06:03:56;;;;;;;15.48;11.32;;;9.60;82.50;;;;;;4960956;28;20047;-63
2023/04/08 06:06:22;;;;;;;12.80;10.43;;;9.70;82.60;;;;;;4957621;28;20499;-63
2023/04/08 06:08:48;;;;;;;12.73;10.40;;;9.70;82.60;;;;;;4946777;28;20169;-63
2023/04/08 06:11:14;;;;;;;12.55;10.95;;;9.70;82.50;;;;;;4955750;28;20370;-63
2023/04/08 06:13:39;;;;;;;14.00;11.10;;;9.70;82.60;;;;;;4949509;28;20499;-63
2023/04/08 06:16:12;;;;;;;19.40;14.75;;;9.70;82.60;;;;;;4956832;28;20059;-64
2023/04/08 06:18:38;;;;;;;13.43;11.55;;;9.80;82.90;;;;;;4955620;28;20507;-63
2023/04/08 06:21:03;;;;;;;13.35;11.02;;;9.70;82.40;;;;;;4951620;28;20042;-64
2023/04/08 06:23:29;;;;;;;13.05;11.15;;;9.80;82.40;;;;;;4957657;28;20035;-65
2023/04/08 06:25:55;;;;;;;12.80;10.80;;;9.80;82.40;;;;;;4952283;28;20046;-63
2023/04/08 06:28:20;;;;;;;12.73;10.85;;;9.80;82.40;;;;;;4953530;28;20098;-63
2023/04/08 06:30:46;;;;;;;13.98;11.70;;;9.90;82.40;;;;;;4948454;28;21697;-63
2023/04/08 06:33:11;;;;;;;15.07;12.20;;;9.90;82.30;;;;;;4943917;28;20035;-63
2023/04/08 06:35:37;;;;;;;13.93;11.90;;;9.90;82.40;;;;;;4950613;28;20091;-64
2023/04/08 06:38:03;;;;;;;15.82;12.27;;;9.90;82.30;;;;;;4947367;28;20053;-64
2023/04/08 06:40:29;;;;;;;14.60;12.32;;;9.90;82.20;;;;;;4953462;28;21754;-63
2023/04/08 06:42:54;;;;;;;18.73;12.82;;;9.90;82.00;;;;;;4950617;28;20062;-64
2023/04/08 06:45:20;;;;;;;15.35;12.48;;;9.80;81.90;;;;;;4953609;28;20038;-64
2023/04/08 06:47:45;;;;;;;14.13;12.05;;;9.90;81.80;;;;;;4946564;28;20039;-63
2023/04/08 06:50:11;;;;;;;15.63;12.38;;;9.80;81.90;;;;;;4953642;28;20453;-63
2023/04/08 06:52:37;;;;;;;15.30;12.35;;;9.80;81.70;;;;;;4947815;28;20042;-63
2023/04/08 06:55:02;;;;;;;13.82;11.25;;;9.80;81.70;;;;;;4955226;28;20167;-63
2023/04/08 06:57:28;;;;;;;14.02;11.65;;;9.80;81.50;;;;;;4948948;28;20045;-62
2023/04/08 06:59:54;;;;;;;13.98;11.90;;;9.80;81.30;;;;;;4948529;28;20581;-63
2023/04/08 07:02:21;;;;;;;13.77;11.52;;;9.80;81.20;;;;;;4949893;28;20047;-63
2023/04/08 07:04:47;;;;;;;14.13;11.77;;;9.70;81.20;;;;;;4951025;28;20398;-63
2023/04/08 07:07:13;;;;;;;14.30;10.65;;;9.80;81.30;;;;;;4951978;28;20335;-63
2023/04/08 07:09:40;;;;;;;13.52;11.27;;;9.70;81.40;;;;;;4953063;28;20078;-64
2023/04/08 07:12:06;;;;;;;12.93;10.75;;;9.80;81.40;;;;;;4954187;28;20110;-63
2023/04/08 07:14:31;;;;;;;13.85;11.07;;;9.70;81.20;;;;;;4950230;28;20590;-64
2023/04/08 07:16:57;;;;;;;12.25;10.40;;;9.80;81.20;;;;;;4956878;28;20537;-63
2023/04/08 07:19:23;;;;;;;12.93;10.75;;;9.70;81.00;;;;;;4956874;28;20046;-63
2023/04/08 07:21:49;;;;;;;12.75;10.43;;;9.70;80.70;;;;;;4956373;28;20134;-63
2023/04/08 07:24:14;;;;;;;11.52;9.52;;;9.70;80.60;;;;;;4954523;28;20042;-63
2023/04/08 07:26:40;;;;;;;12.27;10.43;;;9.70;80.70;;;;;;4952962;28;20034;-63
2023/04/08 07:29:06;;;;;;;11.55;10.07;;;9.70;80.90;;;;;;4955264;28;20517;-63
2023/04/08 07:31:32;;;;;;;11.85;10.02;;;9.70;80.60;;;;;;4955072;28;20506;-64
2023/04/08 07:33:57;;;;;;;11.93;9.95;;;9.70;80.40;;;;;;4953834;28;20039;-63
2023/04/08 07:36:23;;;;;;;12.52;9.55;;;9.70;80.50;;;;;;4954059;28;20043;-64
2023/04/08 07:38:49;;;;;;;9.30;8.02;;;9.70;80.60;;;;;;4958362;28;20050;-64
2023/04/08 07:41:15;;;;;;;9.60;8.43;;;9.70;80.40;;;;;;4960069;28;20146;-64
2023/04/08 07:43:40;;;;;;;9.13;8.00;;;9.70;80.00;;;;;;4957654;28;20043;-63
2023/04/08 07:46:06;;;;;;;9.70;8.23;;;9.60;79.80;;;;;;4958309;28;20511;-64
2023/04/08 07:48:33;;;;;;;10.38;8.43;;;9.60;79.60;;;;;;4953762;28;20403;-63
2023/04/08 07:51:06;;;;;;;10.20;7.88;;;9.60;79.50;;;;;;4957369;28;20047;-63
2023/04/08 07:53:33;;;;;;;9.82;8.68;;;9.60;79.60;;;;;;4958202;28;20127;-64
2023/04/08 07:55:59;;;;;;;9.88;8.25;;;9.60;79.40;;;;;;4960619;28;20058;-64
2023/04/08 07:58:24;;;;;;;8.93;7.95;;;9.60;79.50;;;;;;4955780;28;20051;-64
2023/04/08 08:00:50;;;;;;;9.35;7.78;;;9.50;79.60;;;;;;4956413;28;20113;-63
2023/04/08 08:03:16;;;;;;;9.60;8.05;;;9.50;79.80;;;;;;4955591;28;20121;-63
2023/04/08 08:05:42;;;;;;;9.40;7.90;;;9.50;79.80;;;;;;4955086;28;20042;-63
2023/04/08 08:08:10;;;;;;;9.88;8.32;;;9.50;79.80;;;;;;4955017;28;20597;-64
2023/04/08 08:10:39;;;;;;;10.35;7.65;;;9.50;80.10;;;;;;4958189;28;20031;-64
2023/04/08 08:13:05;;;;;;;9.02;7.95;;;9.50;80.20;;;;;;4961409;28;20039;-63
2023/04/08 08:15:31;;;;;;;9.38;8.07;;;9.50;80.30;;;;;;4948112;28;20139;-63
2023/04/08 08:17:57;;;;;;;7.85;7.05;;;9.50;80.30;;;;;;4957322;28;20423;-63
2023/04/08 08:20:22;;;;;;;8.02;7.22;;;9.50;80.30;;;;;;4953776;28;20039;-63
2023/04/08 08:22:48;;;;;;;8.40;7.53;;;9.50;80.10;;;;;;4952173;28;20042;-63
2023/04/08 08:25:13;;;;;;;11.10;8.65;;;9.50;80.10;;;;;;4955999;28;20228;-63
2023/04/08 08:27:41;;;;;;;9.82;8.52;;;9.50;80.30;;;;;;4957586;28;20032;-63
2023/04/08 08:30:08;;;;;;;9.18;7.93;;;9.60;80.40;;;;;;4953243;28;20081;-64
2023/04/08 08:32:34;;;;;;;11.52;9.30;;;9.60;80.40;;;;;;4958784;28;20073;-63
2023/04/08 08:35:00;;;;;;;10.50;8.80;;;9.60;80.30;;;;;;4955798;28;20035;-63
2023/04/08 08:37:25;;;;;;;9.50;8.15;;;9.60;80.00;;;;;;4947146;28;20032;-61
2023/04/08 08:39:51;;;;;;;10.05;8.18;;;9.60;80.00;;;;;;4959167;28;20039;-63
2023/04/08 08:42:21;;;;;;;9.57;8.40;;;9.70;79.90;;;;;;4960080;28;20042;-62
2023/04/08 08:44:47;;;;;;;9.63;8.30;;;9.70;80.80;;;;;;4958273;28;20038;-63
2023/04/08 08:47:13;;;;;;;9.15;8.13;;;9.70;79.90;;;;;;4958897;28;20035;-67
2023/04/08 08:49:39;;;;;;;8.63;7.72;;;9.80;80.00;;;;;;4952069;28;20035;-63
2023/04/08 08:52:05;;;;;;;9.13;8.13;;;9.80;79.60;;;;;;4955381;28;20046;-63
2023/04/08 08:54:31;;;;;;;9.32;8.23;;;9.80;79.60;;;;;;4956665;28;20636;-63
2023/04/08 08:56:57;;;;;;;9.27;8.38;;;9.90;79.50;;;;;;4953285;28;20131;-63
2023/04/08 08:59:23;;;;;;;8.73;7.82;;;9.90;79.60;;;;;;4956500;28;20061;-63
2023/04/08 09:01:48;;;;;;;8.85;7.93;;;9.90;79.60;;;;;;4956124;28;20067;-63
2023/04/08 09:04:19;;;;;;;10.40;8.40;;;9.90;79.40;;;;;;4952770;28;20062;-64
2023/04/08 09:06:46;;;;;;;8.60;7.75;;;10.00;79.60;;;;;;4955297;28;20047;-62
2023/04/08 09:09:12;;;;;;;9.63;8.57;;;10.00;79.30;;;;;;4955853;28;20089;-64
2023/04/08 09:11:43;;;;;;;9.38;8.10;;;10.00;79.10;;;;;;4953342;28;20035;-63
2023/04/08 09:14:18;;;;;;;9.77;8.30;;;10.00;79.10;;;;;;4955269;28;20039;-64
2023/04/08 09:16:44;;;;;;;;;;;10.00;80.20;;;;;;4954271;28;20046;-63
2023/04/08 09:19:10;;;;;;;9.05;8.13;;;10.00;79.60;;;;;;4950600;28;19922;-63
2023/04/08 09:21:37;;;;;;;12.20;9.45;;;10.00;78.60;;;;;;4949851;28;20046;-64
2023/04/08 09:24:02;;;;;;;13.93;10.75;;;10.10;78.70;;;;;;4953061;28;20035;-63
2023/04/08 09:26:28;;;;;;;15.07;11.90;;;10.00;78.90;;;;;;4955403;28;20403;-63
2023/04/08 09:29:02;;;;;;;17.00;11.95;;;10.00;79.40;;;;;;4957060;28;20173;-63
2023/04/08 09:31:30;;;;;;;14.30;10.85;;;10.00;79.80;;;;;;4953185;28;20043;-63
2023/04/08 09:33:58;;;;;;;14.23;11.15;;;10.00;80.00;;;;;;4956788;28;20105;-63
2023/04/08 09:36:26;;;;;;;14.80;12.13;;;10.00;80.50;;;;;;4956365;28;20039;-63
2023/04/08 09:38:52;;;;;;;16.00;12.18;;;10.10;80.80;;;;;;4953455;28;20070;-63
2023/04/08 09:41:19;;;;;;;15.88;12.43;;;10.10;80.80;;;;;;4945133;28;20058;-63
2023/04/08 09:43:50;;;;;;;15.80;12.48;;;10.10;80.50;;;;;;4958369;28;20375;-63
2023/04/08 09:46:18;;;;;;;16.05;12.57;;;10.10;80.40;;;;;;4957359;28;20534;-63
2023/04/08 09:48:59;;;;;;;14.15;12.15;;;10.20;80.00;;;;;;4959179;28;20498;-63
2023/04/08 09:51:31;;;;;;;15.93;11.85;;;10.30;80.30;;;;;;4959619;28;20038;-63
2023/04/08 09:54:02;;;;;;;14.23;11.85;;;10.30;80.40;;;;;;4959886;28;20035;-63
2023/04/08 09:56:42;;;;;;;16.65;12.27;;;10.40;80.30;;;;;;4956917;28;20475;-63
2023/04/08 09:59:16;;;;;;;13.95;11.77;;;10.50;79.60;;;;;;4960114;28;20491;-63
2023/04/08 10:01:47;;;;;;;13.95;11.55;;;10.50;78.70;;;;;;4959755;28;20097;-63
2023/04/08 10:04:17;;;;;;;14.27;11.25;;;10.60;78.70;;;;;;4959465;28;20118;-61
2023/04/08 10:06:42;;;;;;;13.85;11.43;;;10.60;78.60;;;;;;4958745;28;21097;-63
2023/04/08 10:09:09;;;;;;;13.82;11.27;;;10.70;78.10;;;;;;4958689;28;20043;-63
2023/04/08 10:11:35;;;;;;;13.77;11.27;;;10.70;78.00;;;;;;4954721;28;20042;-63
2023/04/08 10:14:01;;;;;;;14.63;11.07;;;10.70;77.20;;;;;;4959545;28;20042;-62
2023/04/08 10:16:28;;;;;;;13.85;11.10;;;10.80;76.00;;;;;;4958440;28;20130;-63
2023/04/08 10:18:55;;;;;;;14.00;11.32;;;10.90;76.60;;;;;;4950080;28;20487;-63
2023/04/08 10:21:34;;;;;;;14.20;11.75;;;10.90;77.30;;;;;;4959835;28;20049;-63
2023/04/08 10:24:05;;;;;;;13.88;11.32;;;10.90;76.60;;;;;;4960084;28;20031;-63
2023/04/08 10:26:49;;;;;;;14.82;12.15;;;11.00;76.60;;;;;;4958562;28;20036;-63
2023/04/08 10:29:17;;;;;;;15.15;12.40;;;11.00;75.20;;;;;;4959527;28;20387;-63
2023/04/08 10:31:48;;;;;;;14.10;11.75;;;11.10;76.00;;;;;;4959002;28;20082;-63
2023/04/08 10:34:25;;;;;;;14.43;12.18;;;11.00;75.60;;;;;;4959354;28;20137;-62
2023/04/08 10:36:52;;;;;;;14.43;11.90;;;11.10;75.90;;;;;;4958341;28;20647;-62
2023/04/08 10:39:18;;;;;;;14.15;11.93;;;11.10;75.50;;;;;;4959322;28;20437;-62
2023/04/08 10:41:45;;;;;;;14.20;11.20;;;11.00;75.40;;;;;;4959152;28;20049;-63
2023/04/08 10:44:27;;;;;;;14.50;12.02;;;11.00;75.10;;;;;;4959566;28;20142;-62
2023/04/08 10:46:53;;;;;;;12.73;10.80;;;11.00;75.10;;;;;;4956913;28;20043;-63
2023/04/08 10:49:20;;;;;;;14.85;11.43;;;10.90;74.00;;;;;;4958714;28;20062;-63
2023/04/08 10:51:46;;;;;;;14.98;11.80;;;10.90;72.90;;;;;;4955200;28;20050;-64
2023/04/08 10:54:17;;;;;;;15.25;11.43;;;10.90;72.70;;;;;;4959479;28;20126;-63
2023/04/08 10:56:51;;;;;;;12.57;10.57;;;10.90;72.30;;;;;;4957570;28;20084;-63
2023/04/08 10:59:27;;;;;;;12.77;10.17;;;10.80;72.50;;;;;;4957625;28;20034;-63
2023/04/08 11:01:54;;;;;;;14.63;11.25;;;10.80;72.50;;;;;;4959896;28;20366;-63
2023/04/08 11:04:22;;;;;;;14.02;11.25;;;10.80;72.30;;;;;;4958571;28;20410;-63
2023/04/08 11:06:48;;;;;;;13.07;10.65;;;10.80;71.60;;;;;;4958102;28;20050;-63
2023/04/08 11:09:15;;;;;;;13.32;10.85;;;10.70;71.00;;;;;;4959253;28;20047;-63
2023/04/08 11:11:42;;;;;;;13.30;11.18;;;10.70;71.10;;;;;;4963899;28;20034;-62
2023/04/08 11:14:08;;;;;;;12.80;10.88;;;10.70;71.60;;;;;;4960234;28;20051;-63
2023/04/08 11:16:35;;;;;;;15.48;12.55;;;10.70;71.90;;;;;;4961626;28;20565;-63
2023/04/08 11:19:04;;;;;;;13.55;10.93;;;10.70;72.30;;;;;;4961881;28;20045;-63
2023/04/08 11:21:36;;;;;;;13.75;10.93;;;10.70;73.10;;;;;;4962286;28;20097;-63
2023/04/08 11:24:06;;;;;;;12.85;10.50;;;10.70;73.60;;;;;;4962210;28;20513;-63
2023/04/08 11:26:32;;;;;;;12.68;10.73;;;10.80;74.00;;;;;;4961572;28;20078;-63
2023/04/08 11:28:59;;;;;;;13.93;10.27;;;10.80;73.90;;;;;;4960937;28;20300;-63
2023/04/08 11:31:26;;;;;;;11.88;10.23;;;10.80;73.70;;;;;;4962893;28;20131;-63
2023/04/08 11:33:53;;;;;;;13.32;10.90;;;10.80;73.80;;;;;;4962224;28;20505;-62
2023/04/08 11:36:20;;;;;;;16.30;12.57;;;10.90;74.60;;;;;;4961735;28;20042;-62
2023/04/08 11:38:46;;;;;;;14.23;11.50;;;10.90;73.70;;;;;;4961021;28;20039;-63
2023/04/08 11:41:13;;;;;;;12.80;10.63;;;10.90;74.00;;;;;;4962473;28;20510;-63
2023/04/08 11:43:39;;;;;;;12.75;11.05;;;10.90;74.30;;;;;;4962506;28;20035;-63
2023/04/08 11:46:10;;;;;;;13.05;10.73;;;10.90;74.20;;;;;;4954664;28;20178;-64
2023/04/08 11:48:37;;;;;;;13.77;11.35;;;10.90;74.00;;;;;;4955425;28;20042;-64
2023/04/08 11:51:11;;;;;;;13.73;11.43;;;10.90;74.00;;;;;;4960329;28;20047;-63
2023/04/08 11:53:37;;;;;;;14.10;11.50;;;10.90;74.10;;;;;;4960659;28;20043;-63
2023/04/08 11:56:23;;;;;;;12.40;11.00;;;10.90;74.20;;;;;;4960397;28;20036;-64
2023/04/08 11:58:49;;;;;;;11.77;10.32;;;10.90;74.30;;;;;;4958170;28;20042;-64
2023/04/08 12:01:15;;;;;;;14.32;10.80;;;10.90;74.30;;;;;;4960650;28;20522;-65
2023/04/08 12:04:09;;;;;;;13.23;11.52;;;10.90;74.40;;;;;;4959018;28;20042;-64
2023/04/08 12:06:35;;;;;;;13.90;10.57;;;11.00;74.40;;;;;;4956982;28;20051;-64
2023/04/08 12:09:00;;;;;;;17.08;12.30;;;11.00;74.60;;;;;;4959735;28;20038;-64
2023/04/08 12:11:26;;;;;;;14.88;11.02;;;11.00;74.50;;;;;;4958299;28;20034;-63
2023/04/08 12:13:52;;;;;;;14.65;11.75;;;11.00;74.20;;;;;;4959833;28;20036;-63
2023/04/08 12:16:18;;;;;;;13.48;11.15;;;11.10;74.40;;;;;;4960061;28;20038;-63
2023/04/08 12:18:44;;;;;;;12.43;10.30;;;11.10;74.30;;;;;;4960955;28;20486;-63
2023/04/08 12:21:10;;;;;;;13.15;11.40;;;11.10;74.40;;;;;;4961813;28;20054;-64
2023/04/08 12:23:35;;;;;;;14.75;11.02;;;11.10;74.40;;;;;;4958465;28;20065;-63
2023/04/08 12:26:01;;;;;;;14.80;10.90;;;11.10;74.40;;;;;;4957653;28;20126;-63
2023/04/08 12:28:26;;;;;;;16.55;11.70;;;11.20;74.60;;;;;;4957205;28;20043;-63
2023/04/08 12:30:52;;;;;;;12.35;10.63;;;11.20;74.60;;;;;;4955183;28;20066;-62
2023/04/08 12:33:17;;;;;;;13.07;11.07;;;11.20;74.70;;;;;;4962543;28;20034;-62
2023/04/08 12:35:43;;;;;;;13.82;11.27;;;11.30;74.80;;;;;;4960886;28;20085;-63
2023/04/08 12:38:09;;;;;;;12.82;11.25;;;11.40;74.90;;;;;;4945678;28;20385;-62
2023/04/08 12:40:35;;;;;;;14.02;11.63;;;11.50;74.70;;;;;;4961527;28;20047;-62
2023/04/08 12:43:00;;;;;;;12.73;11.02;;;11.40;74.40;;;;;;4957831;28;20101;-63